sensor_id;sensor_type;location;lat;lon;timestamp;pressure;altitude;pressure_sealevel;temperature;humidity
10460;BME280;54412;51.206;6.888;2023-02-19T00:01:44;101093.66;;;11.56;93.21
10460;BME280;54412;51.206;6.888;2023-02-19T00:04:19;101087.97;;;11.65;91.90
10460;BME280;54412;51.206;6.888;2023-02-19T00:06:47;101089.34;;;11.53;92.84
10460;BME280;54412;51.206;6.888;2023-02-19T00:09:16;101083.59;;;11.45;93.15
10460;BME280;54412;51.206;6.888;2023-02-19T00:11:42;101087.44;;;11.38;94.04
10460;BME280;54412;51.206;6.888;2023-02-19T00:14:14;101083.00;;;11.39;93.96
10460;BME280;54412;51.206;6.888;2023-02-19T00:16:40;101082.88;;;11.42;93.64
10460;BME280;54412;51.206;6.888;2023-02-19T00:19:11;101088.13;;;11.60;93.06
10460;BME280;54412;51.206;6.888;2023-02-19T00:21:37;101077.88;;;11.54;93.50
10460;BME280;54412;51.206;6.888;2023-02-19T00:24:05;101080.59;;;11.53;93.54
10460;BME280;54412;51.206;6.888;2023-02-19T00:26:32;101084.56;;;11.43;94.37
10460;BME280;54412;51.206;6.888;2023-02-19T00:28:59;101082.16;;;11.38;94.47
10460;BME280;54412;51.206;6.888;2023-02-19T00:31:31;101083.50;;;11.47;93.45
10460;BME280;54412;51.206;6.888;2023-02-19T00:34:01;101070.84;;;11.53;93.82
10460;BME280;54412;51.206;6.888;2023-02-19T00:36:28;101056.97;;;11.31;94.38
10460;BME280;54412;51.206;6.888;2023-02-19T00:38:54;101063.66;;;11.38;94.54
10460;BME280;54412;51.206;6.888;2023-02-19T00:41:22;101061.22;;;11.52;93.44
10460;BME280;54412;51.206;6.888;2023-02-19T00:46:34;101059.88;;;11.44;93.91
10460;BME280;54412;51.206;6.888;2023-02-19T00:49:01;101056.97;;;11.31;93.93
10460;BME280;54412;51.206;6.888;2023-02-19T00:51:34;101053.22;;;11.54;94.10
10460;BME280;54412;51.206;6.888;2023-02-19T00:54:00;101053.59;;;11.46;94.03
10460;BME280;54412;51.206;6.888;2023-02-19T00:56:26;101067.22;;;11.37;94.04
10460;BME280;54412;51.206;6.888;2023-02-19T00:58:52;101050.88;;;11.48;93.94
10460;BME280;54412;51.206;6.888;2023-02-19T01:01:19;101067.75;;;11.45;93.79
10460;BME280;54412;51.206;6.888;2023-02-19T01:03:45;101048.38;;;11.45;93.86
10460;BME280;54412;51.206;6.888;2023-02-19T01:06:14;101048.75;;;11.56;93.55
10460;BME280;54412;51.206;6.888;2023-02-19T01:08:41;101054.28;;;11.50;93.15
10460;BME280;54412;51.206;6.888;2023-02-19T01:11:12;101049.81;;;11.52;93.22
10460;BME280;54412;51.206;6.888;2023-02-19T01:13:39;101054.28;;;11.50;92.93
10460;BME280;54412;51.206;6.888;2023-02-19T01:16:19;101050.03;;;11.47;92.36
10460;BME280;54412;51.206;6.888;2023-02-19T01:18:46;101048.59;;;11.59;91.86
10460;BME280;54412;51.206;6.888;2023-02-19T01:21:20;101045.47;;;11.51;92.70
10460;BME280;54412;51.206;6.888;2023-02-19T01:23:48;101053.09;;;11.38;92.42
10460;BME280;54412;51.206;6.888;2023-02-19T01:26:17;101041.97;;;11.50;92.19
10460;BME280;54412;51.206;6.888;2023-02-19T01:28:44;101047.22;;;11.32;91.95
10460;BME280;54412;51.206;6.888;2023-02-19T01:31:15;101048.38;;;11.45;92.27
10460;BME280;54412;51.206;6.888;2023-02-19T01:33:54;101052.75;;;11.65;91.58
10460;BME280;54412;51.206;6.888;2023-02-19T01:36:20;101046.19;;;11.54;90.86
10460;BME280;54412;51.206;6.888;2023-02-19T01:38:46;101054.09;;;11.54;91.23
10460;BME280;54412;51.206;6.888;2023-02-19T01:41:20;101058.66;;;11.51;91.47
10460;BME280;54412;51.206;6.888;2023-02-19T01:46:47;101056.75;;;11.73;89.83
10460;BME280;54412;51.206;6.888;2023-02-19T01:49:29;101048.44;;;11.62;90.62
10460;BME280;54412;51.206;6.888;2023-02-19T01:52:37;101036.53;;;11.53;90.53
10460;BME280;54412;51.206;6.888;2023-02-19T01:55:06;101052.97;;;11.60;90.24
10460;BME280;54412;51.206;6.888;2023-02-19T01:57:41;101047.09;;;11.72;89.47
10460;BME280;54412;51.206;6.888;2023-02-19T02:00:11;101050.09;;;11.46;90.12
10460;BME280;54412;51.206;6.888;2023-02-19T02:02:41;101048.66;;;11.57;90.58
10460;BME280;54412;51.206;6.888;2023-02-19T02:05:21;101048.75;;;11.56;91.39
10460;BME280;54412;51.206;6.888;2023-02-19T02:07:48;101050.59;;;11.54;91.25
10460;BME280;54412;51.206;6.888;2023-02-19T02:10:33;101048.75;;;11.75;90.50
10460;BME280;54412;51.206;6.888;2023-02-19T02:12:59;101050.81;;;11.68;90.22
10460;BME280;54412;51.206;6.888;2023-02-19T02:15:42;101062.03;;;11.73;90.29
10460;BME280;54412;51.206;6.888;2023-02-19T02:18:33;101063.28;;;11.46;91.77
10460;BME280;54412;51.206;6.888;2023-02-19T02:21:52;101056.09;;;11.68;91.14
10460;BME280;54412;51.206;6.888;2023-02-19T02:25:04;101052.31;;;11.36;92.45
10460;BME280;54412;51.206;6.888;2023-02-19T02:30:42;101049.88;;;11.32;93.33
10460;BME280;54412;51.206;6.888;2023-02-19T02:33:36;101051.72;;;11.30;93.07
10460;BME280;54412;51.206;6.888;2023-02-19T02:36:07;101054.00;;;11.37;93.31
10460;BME280;54412;51.206;6.888;2023-02-19T02:38:39;101047.09;;;11.53;92.84
10460;BME280;54412;51.206;6.888;2023-02-19T02:41:07;101046.25;;;11.53;92.72
10460;BME280;54412;51.206;6.888;2023-02-19T02:43:33;101044.75;;;11.66;92.55
10460;BME280;54412;51.206;6.888;2023-02-19T02:45:59;101049.00;;;11.50;92.86
10460;BME280;54412;51.206;6.888;2023-02-19T02:48:53;101043.81;;;11.48;93.99
10460;BME280;54412;51.206;6.888;2023-02-19T02:51:39;101043.16;;;11.62;92.78
10460;BME280;54412;51.206;6.888;2023-02-19T02:54:13;101042.66;;;11.54;93.47
10460;BME280;54412;51.206;6.888;2023-02-19T02:57:00;101046.69;;;11.44;94.26
10460;BME280;54412;51.206;6.888;2023-02-19T02:59:33;101042.03;;;11.49;93.83
10460;BME280;54412;51.206;6.888;2023-02-19T03:02:11;101048.88;;;11.53;93.82
10460;BME280;54412;51.206;6.888;2023-02-19T03:10:38;101063.00;;;11.52;92.96
10460;BME280;54412;51.206;6.888;2023-02-19T03:13:31;101066.38;;;11.55;93.11
10460;BME280;54412;51.206;6.888;2023-02-19T03:16:24;101075.84;;;11.41;93.21
10460;BME280;54412;51.206;6.888;2023-02-19T03:19:13;101066.88;;;11.45;93.36
10460;BME280;54412;51.206;6.888;2023-02-19T03:22:09;101073.28;;;11.39;93.46
10460;BME280;54412;51.206;6.888;2023-02-19T03:24:49;101071.91;;;11.49;92.99
10460;BME280;54412;51.206;6.888;2023-02-19T03:27:37;101075.78;;;11.42;93.76
10460;BME280;54412;51.206;6.888;2023-02-19T03:30:16;101085.34;;;11.45;93.37
10460;BME280;54412;51.206;6.888;2023-02-19T03:32:53;101083.16;;;11.54;92.86
10460;BME280;54412;51.206;6.888;2023-02-19T03:35:30;101084.59;;;11.62;92.05
10460;BME280;54412;51.206;6.888;2023-02-19T03:38:18;101081.47;;;11.33;92.32
10460;BME280;54412;51.206;6.888;2023-02-19T03:41:10;101082.91;;;11.22;93.76
10460;BME280;54412;51.206;6.888;2023-02-19T03:44:01;101087.72;;;11.32;93.71
10460;BME280;54412;51.206;6.888;2023-02-19T03:52:17;101091.00;;;11.37;91.74
10460;BME280;54412;51.206;6.888;2023-02-19T03:58:27;101093.72;;;11.36;91.13
10460;BME280;54412;51.206;6.888;2023-02-19T04:01:07;101104.56;;;11.48;91.02
10460;BME280;54412;51.206;6.888;2023-02-19T04:03:50;101102.19;;;11.24;92.33
10460;BME280;54412;51.206;6.888;2023-02-19T04:06:25;101105.47;;;11.29;92.37
10460;BME280;54412;51.206;6.888;2023-02-19T04:08:56;101101.63;;;11.36;91.96
10460;BME280;54412;51.206;6.888;2023-02-19T04:11:25;101106.03;;;11.35;92.00
10460;BME280;54412;51.206;6.888;2023-02-19T04:14:01;101107.19;;;11.30;91.73
10460;BME280;54412;51.206;6.888;2023-02-19T04:16:34;101111.47;;;11.32;91.18
10460;BME280;54412;51.206;6.888;2023-02-19T04:19:10;101117.31;;;11.39;90.93
10460;BME280;54412;51.206;6.888;2023-02-19T04:21:39;101129.16;;;11.30;91.68
10460;BME280;54412;51.206;6.888;2023-02-19T04:24:13;101124.19;;;11.43;91.40
10460;BME280;54412;51.206;6.888;2023-02-19T04:26:44;101131.47;;;11.38;91.32
10460;BME280;54412;51.206;6.888;2023-02-19T04:29:10;101127.59;;;11.26;91.22
10460;BME280;54412;51.206;6.888;2023-02-19T04:31:37;101138.34;;;11.42;91.21
10460;BME280;54412;51.206;6.888;2023-02-19T04:34:03;101134.03;;;11.39;91.07
10460;BME280;54412;51.206;6.888;2023-02-19T04:36:31;101137.97;;;11.49;90.23
10460;BME280;54412;51.206;6.888;2023-02-19T04:38:57;101137.97;;;11.49;89.76
10460;BME280;54412;51.206;6.888;2023-02-19T04:41:23;101150.88;;;11.37;90.67
10460;BME280;54412;51.206;6.888;2023-02-19T04:43:49;101145.41;;;11.41;90.27
10460;BME280;54412;51.206;6.888;2023-02-19T04:46:15;101145.44;;;11.21;90.29
10460;BME280;54412;51.206;6.888;2023-02-19T04:48:40;101157.81;;;11.39;89.88
10460;BME280;54412;51.206;6.888;2023-02-19T04:51:08;101166.59;;;11.40;90.16
10460;BME280;54412;51.206;6.888;2023-02-19T04:53:35;101159.97;;;11.50;88.87
10460;BME280;54412;51.206;6.888;2023-02-19T04:56:10;101162.59;;;11.11;90.01
10460;BME280;54412;51.206;6.888;2023-02-19T04:58:37;101160.81;;;11.12;90.30
10460;BME280;54412;51.206;6.888;2023-02-19T05:01:03;101160.28;;;11.24;90.50
10460;BME280;54412;51.206;6.888;2023-02-19T05:03:30;101169.44;;;11.35;90.16
10460;BME280;54412;51.206;6.888;2023-02-19T05:05:56;101166.38;;;11.26;89.99
10460;BME280;54412;51.206;6.888;2023-02-19T05:08:22;101173.19;;;11.30;90.27
10460;BME280;54412;51.206;6.888;2023-02-19T05:10:47;101172.47;;;11.26;90.54
10460;BME280;54412;51.206;6.888;2023-02-19T05:13:13;101186.53;;;11.47;89.17
10460;BME280;54412;51.206;6.888;2023-02-19T05:15:39;101184.47;;;11.53;88.37
10460;BME280;54412;51.206;6.888;2023-02-19T05:18:04;101185.88;;;11.42;88.65
10460;BME280;54412;51.206;6.888;2023-02-19T05:20:30;101189.44;;;11.41;88.66
10460;BME280;54412;51.206;6.888;2023-02-19T05:22:56;101196.88;;;11.51;86.92
10460;BME280;54412;51.206;6.888;2023-02-19T05:25:21;101198.22;;;11.41;88.02
10460;BME280;54412;51.206;6.888;2023-02-19T05:27:47;101204.69;;;11.34;88.94
10460;BME280;54412;51.206;6.888;2023-02-19T05:30:13;101203.25;;;11.47;87.34
10460;BME280;54412;51.206;6.888;2023-02-19T05:32:38;101213.53;;;11.33;87.85
10460;BME280;54412;51.206;6.888;2023-02-19T05:35:04;101218.22;;;11.27;88.87
10460;BME280;54412;51.206;6.888;2023-02-19T05:37:30;101216.56;;;11.44;88.09
10460;BME280;54412;51.206;6.888;2023-02-19T05:39:56;101211.81;;;11.52;86.68
10460;BME280;54412;51.206;6.888;2023-02-19T05:42:21;101227.28;;;11.41;87.06
10460;BME280;54412;51.206;6.888;2023-02-19T05:44:47;101225.38;;;11.25;87.28
10460;BME280;54412;51.206;6.888;2023-02-19T05:47:13;101218.78;;;11.15;87.81
10460;BME280;54412;51.206;6.888;2023-02-19T05:49:38;101223.97;;;11.36;87.16
10460;BME280;54412;51.206;6.888;2023-02-19T05:52:04;101229.75;;;11.26;87.91
10460;BME280;54412;51.206;6.888;2023-02-19T05:54:30;101230.47;;;11.29;88.04
10460;BME280;54412;51.206;6.888;2023-02-19T05:56:56;101243.63;;;11.49;86.22
10460;BME280;54412;51.206;6.888;2023-02-19T05:59:24;101230.50;;;11.48;86.36
10460;BME280;54412;51.206;6.888;2023-02-19T06:01:52;101236.97;;;11.41;86.93
10460;BME280;54412;51.206;6.888;2023-02-19T06:04:18;101236.66;;;11.28;88.03
10460;BME280;54412;51.206;6.888;2023-02-19T06:06:45;101237.59;;;11.27;86.97
10460;BME280;54412;51.206;6.888;2023-02-19T06:09:12;101247.13;;;11.30;87.63
10460;BME280;54412;51.206;6.888;2023-02-19T06:11:38;101240.25;;;11.46;86.40
10460;BME280;54412;51.206;6.888;2023-02-19T06:14:05;101257.91;;;11.25;86.49
10460;BME280;54412;51.206;6.888;2023-02-19T06:16:31;101248.41;;;11.21;86.35
10460;BME280;54412;51.206;6.888;2023-02-19T06:19:01;101250.63;;;11.10;86.81
10460;BME280;54412;51.206;6.888;2023-02-19T06:21:27;101253.16;;;11.13;86.96
10460;BME280;54412;51.206;6.888;2023-02-19T06:23:53;101251.28;;;11.15;86.75
10460;BME280;54412;51.206;6.888;2023-02-19T06:26:22;101255.84;;;11.12;86.39
10460;BME280;54412;51.206;6.888;2023-02-19T06:28:50;101263.78;;;11.32;85.92
10460;BME280;54412;51.206;6.888;2023-02-19T06:31:18;101260.56;;;11.25;86.33
10460;BME280;54412;51.206;6.888;2023-02-19T06:33:44;101262.53;;;11.20;86.34
10460;BME280;54412;51.206;6.888;2023-02-19T06:36:14;101271.25;;;11.22;86.77
10460;BME280;54412;51.206;6.888;2023-02-19T06:38:41;101269.97;;;11.11;87.20
10460;BME280;54412;51.206;6.888;2023-02-19T06:41:08;101277.50;;;11.20;87.05
10460;BME280;54412;51.206;6.888;2023-02-19T06:43:34;101288.22;;;11.17;87.24
10460;BME280;54412;51.206;6.888;2023-02-19T06:46:03;101281.41;;;11.11;87.89
10460;BME280;54412;51.206;6.888;2023-02-19T06:48:31;101283.97;;;11.13;88.24
10460;BME280;54412;51.206;6.888;2023-02-19T06:50:57;101287.59;;;11.10;88.58
10460;BME280;54412;51.206;6.888;2023-02-19T06:53:23;101289.59;;;11.25;88.56
10460;BME280;54412;51.206;6.888;2023-02-19T06:56:02;101300.16;;;11.25;87.51
10460;BME280;54412;51.206;6.888;2023-02-19T06:58:28;101295.34;;;11.15;88.53
10460;BME280;54412;51.206;6.888;2023-02-19T07:00:55;101294.63;;;11.11;88.83
10460;BME280;54412;51.206;6.888;2023-02-19T07:03:21;101311.81;;;11.00;89.52
10460;BME280;54412;51.206;6.888;2023-02-19T07:05:47;101309.09;;;11.01;88.99
10460;BME280;54412;51.206;6.888;2023-02-19T07:08:13;101318.81;;;11.21;88.68
10460;BME280;54412;51.206;6.888;2023-02-19T07:10:38;101321.78;;;11.35;91.05
10460;BME280;54412;51.206;6.888;2023-02-19T07:13:04;101333.50;;;11.48;89.31
10460;BME280;54412;51.206;6.888;2023-02-19T07:15:30;101333.59;;;11.46;87.04
10460;BME280;54412;51.206;6.888;2023-02-19T07:17:55;101327.09;;;11.33;86.72
10460;BME280;54412;51.206;6.888;2023-02-19T07:20:21;101329.53;;;11.18;89.07
10460;BME280;54412;51.206;6.888;2023-02-19T07:22:47;101339.56;;;11.30;88.50
10460;BME280;54412;51.206;6.888;2023-02-19T07:25:12;101344.63;;;11.36;88.70
10460;BME280;54412;51.206;6.888;2023-02-19T07:27:38;101347.03;;;11.40;87.45
10460;BME280;54412;51.206;6.888;2023-02-19T07:30:05;101352.41;;;11.39;86.79
10460;BME280;54412;51.206;6.888;2023-02-19T07:32:31;101358.53;;;11.39;86.10
10460;BME280;54412;51.206;6.888;2023-02-19T07:34:56;101364.88;;;11.35;86.63
10460;BME280;54412;51.206;6.888;2023-02-19T07:37:22;101365.59;;;11.39;87.02
10460;BME280;54412;51.206;6.888;2023-02-19T07:39:48;101362.16;;;11.37;86.22
10460;BME280;54412;51.206;6.888;2023-02-19T07:42:14;101374.53;;;11.36;85.05
10460;BME280;54412;51.206;6.888;2023-02-19T07:44:40;101384.22;;;11.36;86.82
10460;BME280;54412;51.206;6.888;2023-02-19T07:47:05;101384.41;;;11.53;84.52
10460;BME280;54412;51.206;6.888;2023-02-19T07:49:31;101389.28;;;11.42;87.14
10460;BME280;54412;51.206;6.888;2023-02-19T07:51:57;101388.34;;;11.43;86.03
10460;BME280;54412;51.206;6.888;2023-02-19T07:54:23;101389.50;;;11.36;86.45
10460;BME280;54412;51.206;6.888;2023-02-19T07:56:48;101401.00;;;11.35;85.59
10460;BME280;54412;51.206;6.888;2023-02-19T07:59:14;101403.31;;;11.21;85.86
10460;BME280;54412;51.206;6.888;2023-02-19T08:01:40;101412.56;;;11.32;86.00
10460;BME280;54412;51.206;6.888;2023-02-19T08:04:24;101410.63;;;11.36;86.01
10460;BME280;54412;51.206;6.888;2023-02-19T08:06:51;101411.63;;;11.33;86.02
10460;BME280;54412;51.206;6.888;2023-02-19T08:09:17;101421.41;;;11.10;86.41
10460;BME280;54412;51.206;6.888;2023-02-19T08:11:43;101417.09;;;11.07;86.78
10460;BME280;54412;51.206;6.888;2023-02-19T08:14:28;101420.97;;;11.20;86.24
10460;BME280;54412;51.206;6.888;2023-02-19T08:16:53;101431.16;;;11.29;85.88
10460;BME280;54412;51.206;6.888;2023-02-19T08:19:20;101425.63;;;11.35;85.36
10460;BME280;54412;51.206;6.888;2023-02-19T08:21:46;101443.50;;;11.07;85.83
10460;BME280;54412;51.206;6.888;2023-02-19T08:24:12;101437.78;;;11.18;86.25
10460;BME280;54412;51.206;6.888;2023-02-19T08:26:38;101435.28;;;11.15;86.34
10460;BME280;54412;51.206;6.888;2023-02-19T08:29:04;101438.97;;;11.32;86.22
10460;BME280;54412;51.206;6.888;2023-02-19T08:31:32;101448.66;;;11.32;86.12
10460;BME280;54412;51.206;6.888;2023-02-19T08:33:57;101458.91;;;11.39;86.27
10460;BME280;54412;51.206;6.888;2023-02-19T08:36:23;101461.50;;;11.41;85.93
10460;BME280;54412;51.206;6.888;2023-02-19T08:38:49;101447.25;;;11.45;85.00
10460;BME280;54412;51.206;6.888;2023-02-19T08:41:15;101449.31;;;11.37;84.23
10460;BME280;54412;51.206;6.888;2023-02-19T08:43:41;101450.97;;;11.61;83.83
10460;BME280;54412;51.206;6.888;2023-02-19T08:46:09;101456.22;;;11.41;84.67
10460;BME280;54412;51.206;6.888;2023-02-19T08:48:36;101447.84;;;11.51;83.98
10460;BME280;54412;51.206;6.888;2023-02-19T08:51:07;101465.88;;;11.42;83.85
10460;BME280;54412;51.206;6.888;2023-02-19T08:53:35;101463.09;;;11.45;84.26
10460;BME280;54412;51.206;6.888;2023-02-19T08:56:10;101461.78;;;11.55;83.28
10460;BME280;54412;51.206;6.888;2023-02-19T08:58:36;101464.41;;;11.56;82.47
10460;BME280;54412;51.206;6.888;2023-02-19T09:01:12;101468.16;;;11.51;82.66
10460;BME280;54412;51.206;6.888;2023-02-19T09:03:38;101464.50;;;11.75;81.28
10460;BME280;54412;51.206;6.888;2023-02-19T09:06:04;101449.78;;;11.90;80.50
10460;BME280;54412;51.206;6.888;2023-02-19T09:08:30;101459.50;;;11.89;81.27
10460;BME280;54412;51.206;6.888;2023-02-19T09:11:01;101458.91;;;11.61;81.76
10460;BME280;54412;51.206;6.888;2023-02-19T09:13:28;101461.81;;;11.77;81.17
10460;BME280;54412;51.206;6.888;2023-02-19T09:15:53;101470.66;;;11.76;80.11
10460;BME280;54412;51.206;6.888;2023-02-19T09:18:22;101473.44;;;11.73;80.13
10460;BME280;54412;51.206;6.888;2023-02-19T09:20:48;101484.25;;;11.67;79.79
10460;BME280;54412;51.206;6.888;2023-02-19T09:23:14;101483.06;;;11.52;80.30
10460;BME280;54412;51.206;6.888;2023-02-19T09:25:39;101493.03;;;11.45;81.08
10460;BME280;54412;51.206;6.888;2023-02-19T09:28:05;101496.13;;;11.55;81.49
10460;BME280;54412;51.206;6.888;2023-02-19T09:30:31;101498.03;;;11.75;80.83
10460;BME280;54412;51.206;6.888;2023-02-19T09:32:56;101497.34;;;11.70;81.24
10460;BME280;54412;51.206;6.888;2023-02-19T09:35:22;101498.06;;;11.73;80.49
10460;BME280;54412;51.206;6.888;2023-02-19T09:37:47;101512.53;;;11.65;81.23
10460;BME280;54412;51.206;6.888;2023-02-19T09:40:14;101492.97;;;11.47;82.57
10460;BME280;54412;51.206;6.888;2023-02-19T09:42:46;101511.25;;;11.51;82.86
10460;BME280;54412;51.206;6.888;2023-02-19T09:45:22;101528.22;;;11.69;82.49
10460;BME280;54412;51.206;6.888;2023-02-19T09:47:54;101509.25;;;11.58;81.95
10460;BME280;54412;51.206;6.888;2023-02-19T09:50:33;101504.88;;;11.79;80.52
10460;BME280;54412;51.206;6.888;2023-02-19T09:53:06;101516.25;;;11.59;81.59
10460;BME280;54412;51.206;6.888;2023-02-19T09:55:41;101518.06;;;11.35;83.13
10460;BME280;54412;51.206;6.888;2023-02-19T09:58:20;101502.88;;;11.40;84.96
10460;BME280;54412;51.206;6.888;2023-02-19T10:00:49;101522.38;;;11.38;85.40
10460;BME280;54412;51.206;6.888;2023-02-19T10:03:29;101524.63;;;11.25;86.75
10460;BME280;54412;51.206;6.888;2023-02-19T10:08:54;101541.53;;;11.43;86.36
10460;BME280;54412;51.206;6.888;2023-02-19T10:11:22;101550.44;;;11.40;87.01
10460;BME280;54412;51.206;6.888;2023-02-19T10:14:05;101556.38;;;11.24;87.67
10460;BME280;54412;51.206;6.888;2023-02-19T10:16:38;101557.63;;;11.37;86.78
10460;BME280;54412;51.206;6.888;2023-02-19T10:19:09;101572.50;;;11.39;86.94
10460;BME280;54412;51.206;6.888;2023-02-19T10:21:37;101590.13;;;11.39;87.39
10460;BME280;54412;51.206;6.888;2023-02-19T10:24:05;101598.28;;;11.56;85.89
10460;BME280;54412;51.206;6.888;2023-02-19T10:26:32;101583.31;;;11.55;84.68
10460;BME280;54412;51.206;6.888;2023-02-19T10:29:02;101576.53;;;11.73;85.09
10460;BME280;54412;51.206;6.888;2023-02-19T10:31:31;101584.44;;;11.73;85.39
10460;BME280;54412;51.206;6.888;2023-02-19T10:34:00;101603.78;;;11.73;85.48
10460;BME280;54412;51.206;6.888;2023-02-19T10:36:38;101598.72;;;11.90;84.47
10460;BME280;54412;51.206;6.888;2023-02-19T10:39:35;101606.13;;;12.24;82.00
10460;BME280;54412;51.206;6.888;2023-02-19T10:42:03;101605.31;;;12.22;82.97
10460;BME280;54412;51.206;6.888;2023-02-19T10:44:43;101606.75;;;12.30;82.53
10460;BME280;54412;51.206;6.888;2023-02-19T10:47:20;101623.97;;;12.19;81.10
10460;BME280;54412;51.206;6.888;2023-02-19T10:49:48;101624.94;;;12.16;78.95
10460;BME280;54412;51.206;6.888;2023-02-19T10:52:24;101615.38;;;11.92;79.27
10460;BME280;54412;51.206;6.888;2023-02-19T10:55:15;101618.38;;;12.05;78.41
10460;BME280;54412;51.206;6.888;2023-02-19T10:57:41;101632.72;;;11.99;78.15
10460;BME280;54412;51.206;6.888;2023-02-19T11:00:26;101628.56;;;11.71;80.33
10460;BME280;54412;51.206;6.888;2023-02-19T11:03:21;101630.41;;;11.69;81.88
10460;BME280;54412;51.206;6.888;2023-02-19T11:06:09;101638.44;;;11.89;82.32
10460;BME280;54412;51.206;6.888;2023-02-19T11:09:00;101633.38;;;11.59;84.05
10460;BME280;54412;51.206;6.888;2023-02-19T11:11:31;101636.06;;;11.58;84.96
10460;BME280;54412;51.206;6.888;2023-02-19T11:14:03;101644.53;;;11.68;85.61
10460;BME280;54412;51.206;6.888;2023-02-19T11:16:40;101645.41;;;11.68;86.19
10460;BME280;54412;51.206;6.888;2023-02-19T11:19:35;101648.16;;;11.65;86.52
10460;BME280;54412;51.206;6.888;2023-02-19T11:22:39;101638.13;;;11.73;86.27
10460;BME280;54412;51.206;6.888;2023-02-19T11:30:46;101645.25;;;11.73;86.99
10460;BME280;54412;51.206;6.888;2023-02-19T11:35:45;101644.91;;;11.57;87.54
10460;BME280;54412;51.206;6.888;2023-02-19T11:38:15;101641.59;;;11.52;87.68
10460;BME280;54412;51.206;6.888;2023-02-19T11:53:28;101637.84;;;11.57;87.61
10460;BME280;54412;51.206;6.888;2023-02-19T11:56:13;101631.69;;;11.57;87.77
10460;BME280;54412;51.206;6.888;2023-02-19T11:59:27;101629.31;;;11.51;88.30
10460;BME280;54412;51.206;6.888;2023-02-19T12:10:52;101622.75;;;11.61;88.62
10460;BME280;54412;51.206;6.888;2023-02-19T12:13:48;101609.50;;;11.84;87.67
10460;BME280;54412;51.206;6.888;2023-02-19T12:20:08;101628.44;;;11.50;88.37
10460;BME280;54412;51.206;6.888;2023-02-19T12:23:06;101629.13;;;11.55;89.72
10460;BME280;54412;51.206;6.888;2023-02-19T12:37:01;101636.81;;;11.85;86.92
10460;BME280;54412;51.206;6.888;2023-02-19T12:43:21;101646.16;;;11.93;84.17
10460;BME280;54412;51.206;6.888;2023-02-19T12:45:58;101644.75;;;11.85;85.41
10460;BME280;54412;51.206;6.888;2023-02-19T12:48:45;101649.75;;;11.92;85.25
10460;BME280;54412;51.206;6.888;2023-02-19T12:54:11;101653.06;;;11.97;84.59
10460;BME280;54412;51.206;6.888;2023-02-19T12:56:46;101649.00;;;12.10;83.01
10460;BME280;54412;51.206;6.888;2023-02-19T12:59:21;101647.63;;;12.00;84.21
10460;BME280;54412;51.206;6.888;2023-02-19T13:08:04;101659.25;;;11.96;83.59
10460;BME280;54412;51.206;6.888;2023-02-19T13:10:52;101649.69;;;11.94;83.11
10460;BME280;54412;51.206;6.888;2023-02-19T13:13:35;101654.22;;;11.90;83.21
10460;BME280;54412;51.206;6.888;2023-02-19T13:16:10;101646.09;;;11.95;83.10
10460;BME280;54412;51.206;6.888;2023-02-19T13:18:46;101653.84;;;11.78;83.81
10460;BME280;54412;51.206;6.888;2023-02-19T13:21:16;101656.66;;;11.73;84.28
10460;BME280;54412;51.206;6.888;2023-02-19T13:24:40;101653.03;;;11.76;84.06
10460;BME280;54412;51.206;6.888;2023-02-19T13:27:34;101655.09;;;11.68;84.22
10460;BME280;54412;51.206;6.888;2023-02-19T13:30:51;101646.88;;;11.75;84.83
10460;BME280;54412;51.206;6.888;2023-02-19T13:33:57;101652.41;;;11.69;84.54
10460;BME280;54412;51.206;6.888;2023-02-19T13:36:28;101649.84;;;11.89;83.73
10460;BME280;54412;51.206;6.888;2023-02-19T13:38:56;101661.25;;;11.68;85.19
10460;BME280;54412;51.206;6.888;2023-02-19T13:41:32;101672.56;;;11.72;84.37
10460;BME280;54412;51.206;6.888;2023-02-19T13:44:06;101669.84;;;11.73;84.93
10460;BME280;54412;51.206;6.888;2023-02-19T13:46:43;101675.59;;;11.61;85.70
10460;BME280;54412;51.206;6.888;2023-02-19T13:51:54;101678.28;;;11.59;86.59
10460;BME280;54412;51.206;6.888;2023-02-19T13:54:31;101670.59;;;11.77;85.59
10460;BME280;54412;51.206;6.888;2023-02-19T13:59:53;101678.25;;;11.84;85.50
10460;BME280;54412;51.206;6.888;2023-02-19T14:04:55;101693.00;;;11.90;85.76
10460;BME280;54412;51.206;6.888;2023-02-19T14:07:52;101696.69;;;11.86;85.56
10460;BME280;54412;51.206;6.888;2023-02-19T14:10:54;101691.41;;;11.86;86.14
10460;BME280;54412;51.206;6.888;2023-02-19T14:16:47;101706.75;;;11.99;85.66
10460;BME280;54412;51.206;6.888;2023-02-19T14:30:54;101719.69;;;12.07;81.95
10460;BME280;54412;51.206;6.888;2023-02-19T14:33:26;101718.47;;;11.92;80.88
10460;BME280;54412;51.206;6.888;2023-02-19T14:38:57;101724.06;;;11.85;79.92
10460;BME280;54412;51.206;6.888;2023-02-19T14:41:26;101722.16;;;11.65;79.40
10460;BME280;54412;51.206;6.888;2023-02-19T14:43:56;101728.53;;;11.83;79.67
10460;BME280;54412;51.206;6.888;2023-02-19T14:46:38;101725.72;;;11.87;79.81
10460;BME280;54412;51.206;6.888;2023-02-19T14:49:28;101724.94;;;11.85;77.97
10460;BME280;54412;51.206;6.888;2023-02-19T14:52:03;101730.44;;;11.79;79.60
10460;BME280;54412;51.206;6.888;2023-02-19T14:55:08;101733.84;;;11.58;80.41
10460;BME280;54412;51.206;6.888;2023-02-19T14:57:40;101729.22;;;11.65;79.99
10460;BME280;54412;51.206;6.888;2023-02-19T15:02:49;101742.84;;;11.52;82.01
10460;BME280;54412;51.206;6.888;2023-02-19T15:05:25;101735.81;;;11.51;82.93
10460;BME280;54412;51.206;6.888;2023-02-19T15:07:55;101729.91;;;11.45;83.04
10460;BME280;54412;51.206;6.888;2023-02-19T15:10:22;101723.94;;;11.40;83.26
10460;BME280;54412;51.206;6.888;2023-02-19T15:12:56;101729.09;;;11.43;81.51